sensor_id;sensor_type;location;lat;lon;timestamp;pressure;altitude;pressure_sealevel;temperature;humidity
4199;BME280;2113;50.946;14.610;2023-05-12T00:01:26;96873.41;;;10.41;76.40
4199;BME280;2113;50.946;14.610;2023-05-12T00:03:55;96873.03;;;10.36;76.12
4199;BME280;2113;50.946;14.610;2023-05-12T00:06:24;96868.91;;;10.33;76.78
4199;BME280;2113;50.946;14.610;2023-05-12T00:08:52;96874.66;;;10.37;77.10
4199;BME280;2113;50.946;14.610;2023-05-12T00:11:22;96877.78;;;10.41;77.04
4199;BME280;2113;50.946;14.610;2023-05-12T00:13:51;96875.50;;;10.38;76.95
4199;BME280;2113;50.946;14.610;2023-05-12T00:16:19;96876.88;;;10.32;77.51
4199;BME280;2113;50.946;14.610;2023-05-12T00:18:47;96874.00;;;10.16;80.13
4199;BME280;2113;50.946;14.610;2023-05-12T00:21:16;96876.63;;;10.06;80.95
4199;BME280;2113;50.946;14.610;2023-05-12T00:23:44;96866.88;;;9.98;81.47
4199;BME280;2113;50.946;14.610;2023-05-12T00:26:13;96876.22;;;10.01;78.65
4199;BME280;2113;50.946;14.610;2023-05-12T00:28:44;96866.88;;;9.98;81.02
4199;BME280;2113;50.946;14.610;2023-05-12T00:31:13;96870.47;;;9.88;81.85
4199;BME280;2113;50.946;14.610;2023-05-12T00:33:41;96871.31;;;9.88;81.58
4199;BME280;2113;50.946;14.610;2023-05-12T00:36:10;96868.13;;;9.85;81.60
4199;BME280;2113;50.946;14.610;2023-05-12T00:38:38;96864.59;;;9.76;82.35
4199;BME280;2113;50.946;14.610;2023-05-12T00:41:07;96863.09;;;9.74;81.89
4199;BME280;2113;50.946;14.610;2023-05-12T00:43:35;96873.38;;;9.75;80.26
4199;BME280;2113;50.946;14.610;2023-05-12T00:46:05;96868.28;;;9.74;79.27
4199;BME280;2113;50.946;14.610;2023-05-12T00:48:35;96869.56;;;9.70;79.92
4199;BME280;2113;50.946;14.610;2023-05-12T00:51:04;96884.94;;;9.53;78.99
4199;BME280;2113;50.946;14.610;2023-05-12T00:53:34;96880.81;;;9.41;78.97
4199;BME280;2113;50.946;14.610;2023-05-12T00:56:16;96880.13;;;9.39;79.54
4199;BME280;2113;50.946;14.610;2023-05-12T00:58:45;96877.38;;;9.41;79.18
4199;BME280;2113;50.946;14.610;2023-05-12T01:01:16;96886.69;;;9.43;79.84
4199;BME280;2113;50.946;14.610;2023-05-12T01:03:48;96882.47;;;9.42;79.42
4199;BME280;2113;50.946;14.610;2023-05-12T01:06:21;96881.63;;;9.51;78.60
4199;BME280;2113;50.946;14.610;2023-05-12T01:08:57;96879.16;;;9.50;78.78
4199;BME280;2113;50.946;14.610;2023-05-12T01:11:26;96879.84;;;9.42;79.61
4199;BME280;2113;50.946;14.610;2023-05-12T01:13:54;96878.03;;;9.33;79.93
4199;BME280;2113;50.946;14.610;2023-05-12T01:16:28;96880.91;;;9.30;79.56
4199;BME280;2113;50.946;14.610;2023-05-12T01:18:59;96877.09;;;9.24;80.20
4199;BME280;2113;50.946;14.610;2023-05-12T01:21:29;96875.69;;;9.20;80.32
4199;BME280;2113;50.946;14.610;2023-05-12T01:24:00;96877.66;;;9.28;80.12
4199;BME280;2113;50.946;14.610;2023-05-12T01:26:31;96881.31;;;9.16;80.45
4199;BME280;2113;50.946;14.610;2023-05-12T01:29:02;96879.78;;;9.04;81.65
4199;BME280;2113;50.946;14.610;2023-05-12T01:31:33;96883.47;;;8.91;82.77
4199;BME280;2113;50.946;14.610;2023-05-12T01:34:02;96884.81;;;8.86;82.74
4199;BME280;2113;50.946;14.610;2023-05-12T01:36:30;96893.97;;;8.80;82.95
4199;BME280;2113;50.946;14.610;2023-05-12T01:38:58;96890.69;;;8.78;83.13
4199;BME280;2113;50.946;14.610;2023-05-12T01:41:26;96891.13;;;8.83;82.18
4199;BME280;2113;50.946;14.610;2023-05-12T01:43:56;96895.25;;;8.86;82.29
4199;BME280;2113;50.946;14.610;2023-05-12T01:46:25;96896.47;;;8.82;82.38
4199;BME280;2113;50.946;14.610;2023-05-12T01:48:56;96897.53;;;8.79;82.63
4199;BME280;2113;50.946;14.610;2023-05-12T01:51:25;96884.66;;;8.78;81.98
4199;BME280;2113;50.946;14.610;2023-05-12T01:53:55;96897.66;;;8.78;81.63
4199;BME280;2113;50.946;14.610;2023-05-12T01:56:27;96893.16;;;8.80;81.62
4199;BME280;2113;50.946;14.610;2023-05-12T01:58:57;96894.97;;;8.89;80.05
4199;BME280;2113;50.946;14.610;2023-05-12T02:01:25;96894.56;;;8.94;79.91
4199;BME280;2113;50.946;14.610;2023-05-12T02:03:56;96901.88;;;9.09;76.99
4199;BME280;2113;50.946;14.610;2023-05-12T02:06:25;96901.09;;;9.28;76.52
4199;BME280;2113;50.946;14.610;2023-05-12T02:08:55;96910.00;;;9.35;73.92
4199;BME280;2113;50.946;14.610;2023-05-12T02:11:23;96900.53;;;9.34;74.37
4199;BME280;2113;50.946;14.610;2023-05-12T02:13:52;96900.41;;;9.36;73.04
4199;BME280;2113;50.946;14.610;2023-05-12T02:16:22;96898.38;;;9.39;74.06
4199;BME280;2113;50.946;14.610;2023-05-12T02:18:50;96900.13;;;9.29;74.18
4199;BME280;2113;50.946;14.610;2023-05-12T02:21:19;96904.66;;;9.27;74.34
4199;BME280;2113;50.946;14.610;2023-05-12T02:23:49;96903.28;;;9.23;74.65
4199;BME280;2113;50.946;14.610;2023-05-12T02:26:17;96906.41;;;9.17;75.72
4199;BME280;2113;50.946;14.610;2023-05-12T02:28:47;96902.97;;;9.07;77.71
4199;BME280;2113;50.946;14.610;2023-05-12T02:31:15;96913.78;;;9.02;76.49
4199;BME280;2113;50.946;14.610;2023-05-12T02:33:45;96905.81;;;9.04;78.36
4199;BME280;2113;50.946;14.610;2023-05-12T02:36:13;96907.19;;;8.98;77.88
4199;BME280;2113;50.946;14.610;2023-05-12T02:38:41;96909.22;;;8.85;74.83
4199;BME280;2113;50.946;14.610;2023-05-12T02:41:10;96902.50;;;8.92;74.79
4199;BME280;2113;50.946;14.610;2023-05-12T02:43:38;96912.81;;;9.03;73.10
4199;BME280;2113;50.946;14.610;2023-05-12T02:46:07;96909.94;;;9.06;73.15
4199;BME280;2113;50.946;14.610;2023-05-12T02:48:35;96902.56;;;9.11;73.12
4199;BME280;2113;50.946;14.610;2023-05-12T02:51:07;96904.19;;;9.03;73.98
4199;BME280;2113;50.946;14.610;2023-05-12T02:53:35;96902.56;;;9.02;74.27
4199;BME280;2113;50.946;14.610;2023-05-12T02:56:04;96895.69;;;9.01;75.44
4199;BME280;2113;50.946;14.610;2023-05-12T02:58:33;96900.47;;;8.96;74.30
4199;BME280;2113;50.946;14.610;2023-05-12T03:01:02;96903.34;;;8.93;75.88
4199;BME280;2113;50.946;14.610;2023-05-12T03:03:38;96896.59;;;8.80;78.12
4199;BME280;2113;50.946;14.610;2023-05-12T03:06:08;96907.25;;;8.77;75.42
4199;BME280;2113;50.946;14.610;2023-05-12T03:08:36;96898.25;;;8.81;76.41
4199;BME280;2113;50.946;14.610;2023-05-12T03:11:04;96898.97;;;8.63;76.81
4199;BME280;2113;50.946;14.610;2023-05-12T03:13:33;96899.41;;;8.68;77.24
4199;BME280;2113;50.946;14.610;2023-05-12T03:16:02;96905.47;;;8.78;76.19
4199;BME280;2113;50.946;14.610;2023-05-12T03:18:30;96908.41;;;8.54;78.81
4199;BME280;2113;50.946;14.610;2023-05-12T03:20:59;96906.53;;;8.35;78.46
4199;BME280;2113;50.946;14.610;2023-05-12T03:23:29;96906.41;;;8.37;78.24
4199;BME280;2113;50.946;14.610;2023-05-12T03:25:57;96900.94;;;8.40;79.32
4199;BME280;2113;50.946;14.610;2023-05-12T03:28:27;96901.56;;;8.53;78.15
4199;BME280;2113;50.946;14.610;2023-05-12T03:30:55;96899.91;;;8.52;79.57
4199;BME280;2113;50.946;14.610;2023-05-12T03:33:23;96902.50;;;8.52;79.54
4199;BME280;2113;50.946;14.610;2023-05-12T03:35:52;96904.59;;;8.58;78.61
4199;BME280;2113;50.946;14.610;2023-05-12T03:38:21;96911.47;;;8.59;76.93
4199;BME280;2113;50.946;14.610;2023-05-12T03:41:02;96908.97;;;8.58;76.70
4199;BME280;2113;50.946;14.610;2023-05-12T03:43:30;96903.91;;;8.56;76.56
4199;BME280;2113;50.946;14.610;2023-05-12T03:45:59;96908.75;;;8.70;76.59
4199;BME280;2113;50.946;14.610;2023-05-12T03:48:30;96900.59;;;8.84;75.94
4199;BME280;2113;50.946;14.610;2023-05-12T03:50:59;96905.00;;;8.94;76.15
4199;BME280;2113;50.946;14.610;2023-05-12T03:53:27;96905.41;;;8.99;76.07
4199;BME280;2113;50.946;14.610;2023-05-12T03:56:02;96910.38;;;9.02;76.86
4199;BME280;2113;50.946;14.610;2023-05-12T03:58:31;96911.59;;;8.98;76.73
4199;BME280;2113;50.946;14.610;2023-05-12T04:01:00;96909.13;;;9.06;78.08
4199;BME280;2113;50.946;14.610;2023-05-12T04:03:28;96900.09;;;9.10;78.73
4199;BME280;2113;50.946;14.610;2023-05-12T04:05:57;96905.19;;;9.11;79.78
4199;BME280;2113;50.946;14.610;2023-05-12T04:08:27;96908.72;;;9.10;79.79
4199;BME280;2113;50.946;14.610;2023-05-12T04:10:58;96906.16;;;9.30;79.68
4199;BME280;2113;50.946;14.610;2023-05-12T04:13:27;96915.22;;;9.35;79.56
4199;BME280;2113;50.946;14.610;2023-05-12T04:15:57;96912.66;;;9.54;78.55
4199;BME280;2113;50.946;14.610;2023-05-12T04:18:26;96910.72;;;9.56;78.59
4199;BME280;2113;50.946;14.610;2023-05-12T04:20:55;96914.28;;;9.55;78.13
4199;BME280;2113;50.946;14.610;2023-05-12T04:23:24;96914.00;;;9.58;78.81
4199;BME280;2113;50.946;14.610;2023-05-12T04:25:52;96919.47;;;9.46;74.31
4199;BME280;2113;50.946;14.610;2023-05-12T04:28:24;96921.41;;;9.63;74.36
4199;BME280;2113;50.946;14.610;2023-05-12T04:30:52;96932.97;;;9.80;75.69
4199;BME280;2113;50.946;14.610;2023-05-12T04:33:21;96929.91;;;9.84;76.53
4199;BME280;2113;50.946;14.610;2023-05-12T04:35:54;96928.53;;;10.09;75.83
4199;BME280;2113;50.946;14.610;2023-05-12T04:38:23;96923.88;;;10.22;76.03
4199;BME280;2113;50.946;14.610;2023-05-12T04:40:56;96925.66;;;10.31;73.01
4199;BME280;2113;50.946;14.610;2023-05-12T04:43:26;96926.06;;;10.27;70.77
4199;BME280;2113;50.946;14.610;2023-05-12T04:45:59;96933.22;;;10.25;70.75
4199;BME280;2113;50.946;14.610;2023-05-12T04:48:27;96931.97;;;10.39;70.78
4199;BME280;2113;50.946;14.610;2023-05-12T04:50:57;96935.50;;;10.47;70.19
4199;BME280;2113;50.946;14.610;2023-05-12T04:53:28;96932.09;;;10.18;71.62
4199;BME280;2113;50.946;14.610;2023-05-12T04:56:01;96933.34;;;10.33;72.70
4199;BME280;2113;50.946;14.610;2023-05-12T04:58:36;96934.69;;;10.18;69.78
4199;BME280;2113;50.946;14.610;2023-05-12T05:01:05;96937.06;;;10.11;71.16
4199;BME280;2113;50.946;14.610;2023-05-12T05:03:33;96941.03;;;10.06;70.55
4199;BME280;2113;50.946;14.610;2023-05-12T05:06:03;96941.88;;;9.96;71.66
4199;BME280;2113;50.946;14.610;2023-05-12T05:08:31;96946.09;;;9.59;73.43
4199;BME280;2113;50.946;14.610;2023-05-12T05:11:00;96946.81;;;9.61;72.96
4199;BME280;2113;50.946;14.610;2023-05-12T05:13:30;96942.97;;;9.75;72.92
4199;BME280;2113;50.946;14.610;2023-05-12T05:15:59;96949.13;;;10.03;71.51
4199;BME280;2113;50.946;14.610;2023-05-12T05:18:29;96939.25;;;10.25;69.22
4199;BME280;2113;50.946;14.610;2023-05-12T05:20:58;96938.53;;;10.43;67.86
4199;BME280;2113;50.946;14.610;2023-05-12T05:23:26;96935.00;;;10.71;67.85
4199;BME280;2113;50.946;14.610;2023-05-12T05:25:55;96937.47;;;10.73;66.28
4199;BME280;2113;50.946;14.610;2023-05-12T05:28:24;96942.75;;;10.63;68.12
4199;BME280;2113;50.946;14.610;2023-05-12T05:30:52;96941.00;;;10.81;67.16
4199;BME280;2113;50.946;14.610;2023-05-12T05:33:22;96942.31;;;10.95;65.56
4199;BME280;2113;50.946;14.610;2023-05-12T05:35:52;96944.72;;;10.88;67.68
4199;BME280;2113;50.946;14.610;2023-05-12T05:38:20;96937.44;;;11.10;67.69
4199;BME280;2113;50.946;14.610;2023-05-12T05:40:49;96936.97;;;11.24;66.32
4199;BME280;2113;50.946;14.610;2023-05-12T05:43:21;96934.25;;;11.43;64.65
4199;BME280;2113;50.946;14.610;2023-05-12T05:45:50;96945.22;;;11.47;64.17
4199;BME280;2113;50.946;14.610;2023-05-12T05:48:20;96942.22;;;11.42;64.65
4199;BME280;2113;50.946;14.610;2023-05-12T05:50:51;96944.03;;;11.59;64.68
4199;BME280;2113;50.946;14.610;2023-05-12T05:53:21;96935.47;;;11.84;64.25
4199;BME280;2113;50.946;14.610;2023-05-12T05:55:51;96946.09;;;11.37;63.84
4199;BME280;2113;50.946;14.610;2023-05-12T05:58:19;96943.59;;;11.63;64.58
4199;BME280;2113;50.946;14.610;2023-05-12T06:00:48;96954.25;;;11.80;64.74
4199;BME280;2113;50.946;14.610;2023-05-12T06:03:17;96946.69;;;11.77;64.61
4199;BME280;2113;50.946;14.610;2023-05-12T06:05:46;96947.75;;;11.84;63.63
4199;BME280;2113;50.946;14.610;2023-05-12T06:08:16;96948.31;;;12.13;64.23
4199;BME280;2113;50.946;14.610;2023-05-12T06:10:44;96950.25;;;12.29;63.09
4199;BME280;2113;50.946;14.610;2023-05-12T06:13:13;96950.28;;;12.37;63.44
4199;BME280;2113;50.946;14.610;2023-05-12T06:15:41;96946.00;;;12.54;64.50
4199;BME280;2113;50.946;14.610;2023-05-12T06:18:11;96949.03;;;12.67;62.61
4199;BME280;2113;50.946;14.610;2023-05-12T06:20:39;96953.38;;;12.84;61.88
4199;BME280;2113;50.946;14.610;2023-05-12T06:23:08;96951.59;;;12.85;59.89
4199;BME280;2113;50.946;14.610;2023-05-12T06:25:39;96957.44;;;12.78;60.75
4199;BME280;2113;50.946;14.610;2023-05-12T06:28:07;96953.44;;;13.00;59.41
4199;BME280;2113;50.946;14.610;2023-05-12T06:30:35;96958.25;;;12.79;58.04
4199;BME280;2113;50.946;14.610;2023-05-12T06:33:04;96954.81;;;13.12;59.64
4199;BME280;2113;50.946;14.610;2023-05-12T06:35:32;96953.94;;;13.30;57.67
4199;BME280;2113;50.946;14.610;2023-05-12T06:38:04;96952.66;;;13.42;55.98
4199;BME280;2113;50.946;14.610;2023-05-12T06:40:33;96961.56;;;13.57;55.35
4199;BME280;2113;50.946;14.610;2023-05-12T06:43:03;96961.44;;;13.83;55.30
4199;BME280;2113;50.946;14.610;2023-05-12T06:45:35;96956.38;;;14.30;56.69
4199;BME280;2113;50.946;14.610;2023-05-12T06:48:06;96961.59;;;14.87;53.31
4199;BME280;2113;50.946;14.610;2023-05-12T06:50:35;96965.72;;;15.28;52.82
4199;BME280;2113;50.946;14.610;2023-05-12T06:53:03;96954.41;;;17.83;46.44
4199;BME280;2113;50.946;14.610;2023-05-12T06:55:32;96957.31;;;18.09;43.06
4199;BME280;2113;50.946;14.610;2023-05-12T06:58:01;96968.94;;;16.98;48.13
4199;BME280;2113;50.946;14.610;2023-05-12T07:00:31;96961.28;;;16.74;49.03
4199;BME280;2113;50.946;14.610;2023-05-12T07:02:59;96956.25;;;17.53;49.46
4199;BME280;2113;50.946;14.610;2023-05-12T07:05:30;96954.75;;;17.14;46.54
4199;BME280;2113;50.946;14.610;2023-05-12T07:07:58;96950.31;;;18.23;45.79
4199;BME280;2113;50.946;14.610;2023-05-12T07:10:27;96945.75;;;19.69;42.94
4199;BME280;2113;50.946;14.610;2023-05-12T07:12:55;96937.56;;;19.16;42.59
4199;BME280;2113;50.946;14.610;2023-05-12T07:15:24;96952.06;;;20.49;40.44
4199;BME280;2113;50.946;14.610;2023-05-12T07:17:57;96942.22;;;20.82;38.52
4199;BME280;2113;50.946;14.610;2023-05-12T07:20:26;96948.94;;;20.32;39.75
4199;BME280;2113;50.946;14.610;2023-05-12T07:22:54;96941.34;;;19.35;40.79
4199;BME280;2113;50.946;14.610;2023-05-12T07:25:22;96944.13;;;19.68;40.87
4199;BME280;2113;50.946;14.610;2023-05-12T07:27:51;96942.63;;;20.33;37.68
4199;BME280;2113;50.946;14.610;2023-05-12T07:30:19;96942.56;;;18.42;41.68
4199;BME280;2113;50.946;14.610;2023-05-12T07:32:49;96938.75;;;18.52;43.47
4199;BME280;2113;50.946;14.610;2023-05-12T07:35:18;96942.44;;;18.78;43.27
4199;BME280;2113;50.946;14.610;2023-05-12T07:37:48;96952.66;;;17.24;45.49
4199;BME280;2113;50.946;14.610;2023-05-12T07:40:17;96947.94;;;17.20;45.83
4199;BME280;2113;50.946;14.610;2023-05-12T07:42:45;96950.38;;;18.78;44.04
4199;BME280;2113;50.946;14.610;2023-05-12T07:45:13;96950.47;;;19.67;41.47
4199;BME280;2113;50.946;14.610;2023-05-12T07:47:49;96953.19;;;20.00;38.66
4199;BME280;2113;50.946;14.610;2023-05-12T07:50:20;96957.28;;;19.48;39.55
4199;BME280;2113;50.946;14.610;2023-05-12T07:52:50;96959.84;;;18.94;41.14
4199;BME280;2113;50.946;14.610;2023-05-12T07:55:20;96959.44;;;17.99;45.58
4199;BME280;2113;50.946;14.610;2023-05-12T07:57:49;96965.97;;;17.01;46.50
4199;BME280;2113;50.946;14.610;2023-05-12T08:00:18;96967.41;;;18.05;44.08
4199;BME280;2113;50.946;14.610;2023-05-12T08:02:46;96959.88;;;17.81;46.49
4199;BME280;2113;50.946;14.610;2023-05-12T08:05:15;96963.22;;;18.81;43.49
4199;BME280;2113;50.946;14.610;2023-05-12T08:07:45;96965.72;;;18.90;42.37
4199;BME280;2113;50.946;14.610;2023-05-12T08:10:13;96962.66;;;19.27;40.37
4199;BME280;2113;50.946;14.610;2023-05-12T08:12:41;96967.59;;;18.68;42.92
4199;BME280;2113;50.946;14.610;2023-05-12T08:15:10;96958.88;;;19.91;41.39
4199;BME280;2113;50.946;14.610;2023-05-12T08:17:38;96964.78;;;19.86;40.62
4199;BME280;2113;50.946;14.610;2023-05-12T08:20:08;96968.09;;;20.08;39.71
4199;BME280;2113;50.946;14.610;2023-05-12T08:22:37;96969.38;;;20.78;39.73
4199;BME280;2113;50.946;14.610;2023-05-12T08:25:08;96965.03;;;21.81;36.94
4199;BME280;2113;50.946;14.610;2023-05-12T08:27:38;96959.91;;;21.79;37.26
4199;BME280;2113;50.946;14.610;2023-05-12T08:30:08;96973.03;;;20.97;37.25
4199;BME280;2113;50.946;14.610;2023-05-12T08:32:36;96970.50;;;21.41;38.62
4199;BME280;2113;50.946;14.610;2023-05-12T08:35:05;96963.66;;;20.87;40.18
4199;BME280;2113;50.946;14.610;2023-05-12T08:37:34;96971.59;;;20.28;40.45
4199;BME280;2113;50.946;14.610;2023-05-12T08:40:19;96973.25;;;20.82;39.01
4199;BME280;2113;50.946;14.610;2023-05-12T08:42:56;96971.00;;;20.66;38.05
4199;BME280;2113;50.946;14.610;2023-05-12T08:45:29;96969.00;;;18.64;40.64
4199;BME280;2113;50.946;14.610;2023-05-12T08:47:57;96969.88;;;19.40;42.58
4199;BME280;2113;50.946;14.610;2023-05-12T08:50:29;96966.94;;;19.69;41.47
4199;BME280;2113;50.946;14.610;2023-05-12T08:52:58;96980.88;;;19.43;40.62
4199;BME280;2113;50.946;14.610;2023-05-12T08:55:28;96963.78;;;21.39;38.19
4199;BME280;2113;50.946;14.610;2023-05-12T08:58:01;96978.56;;;20.42;42.73
4199;BME280;2113;50.946;14.610;2023-05-12T09:00:31;96973.13;;;19.35;42.83
4199;BME280;2113;50.946;14.610;2023-05-12T09:03:01;96978.78;;;19.67;43.69
4199;BME280;2113;50.946;14.610;2023-05-12T09:05:33;96979.19;;;18.45;45.31
4199;BME280;2113;50.946;14.610;2023-05-12T09:08:03;96977.19;;;18.97;45.75
4199;BME280;2113;50.946;14.610;2023-05-12T09:10:33;96980.34;;;19.55;45.23
4199;BME280;2113;50.946;14.610;2023-05-12T09:13:07;96989.53;;;19.59;38.76
4199;BME280;2113;50.946;14.610;2023-05-12T09:15:43;96984.78;;;19.95;41.18
4199;BME280;2113;50.946;14.610;2023-05-12T09:18:12;96979.69;;;19.46;44.45
4199;BME280;2113;50.946;14.610;2023-05-12T09:20:41;96982.47;;;18.69;42.64
4199;BME280;2113;50.946;14.610;2023-05-12T09:23:16;96981.25;;;19.34;45.12
4199;BME280;2113;50.946;14.610;2023-05-12T09:25:57;96990.25;;;19.39;42.29
4199;BME280;2113;50.946;14.610;2023-05-12T09:28:33;96978.78;;;19.32;42.92
4199;BME280;2113;50.946;14.610;2023-05-12T09:31:14;96983.22;;;18.91;41.03
4199;BME280;2113;50.946;14.610;2023-05-12T09:33:43;96981.22;;;18.93;44.79
4199;BME280;2113;50.946;14.610;2023-05-12T09:36:16;96979.53;;;19.20;44.33
4199;BME280;2113;50.946;14.610;2023-05-12T09:38:45;96984.38;;;19.09;40.71
4199;BME280;2113;50.946;14.610;2023-05-12T09:41:21;96985.19;;;19.10;42.19
4199;BME280;2113;50.946;14.610;2023-05-12T09:43:51;96982.91;;;19.41;40.48
4199;BME280;2113;50.946;14.610;2023-05-12T09:46:20;96983.34;;;21.51;37.28
4199;BME280;2113;50.946;14.610;2023-05-12T09:48:48;96971.06;;;22.01;37.60
4199;BME280;2113;50.946;14.610;2023-05-12T09:51:17;96975.41;;;24.29;30.42
4199;BME280;2113;50.946;14.610;2023-05-12T09:53:46;96973.59;;;25.70;28.94
4199;BME280;2113;50.946;14.610;2023-05-12T09:56:16;96974.47;;;25.24;28.93
4199;BME280;2113;50.946;14.610;2023-05-12T09:58:46;96974.94;;;25.21;29.78
4199;BME280;2113;50.946;14.610;2023-05-12T10:01:18;96965.13;;;23.85;32.50
4199;BME280;2113;50.946;14.610;2023-05-12T10:03:51;96968.56;;;23.55;32.10
4199;BME280;2113;50.946;14.610;2023-05-12T10:06:24;96956.78;;;24.88;29.84
4199;BME280;2113;50.946;14.610;2023-05-12T10:09:13;96964.56;;;24.54;32.34
4199;BME280;2113;50.946;14.610;2023-05-12T10:11:45;96965.69;;;25.75;28.47
4199;BME280;2113;50.946;14.610;2023-05-12T10:14:16;96977.56;;;24.62;28.29
4199;BME280;2113;50.946;14.610;2023-05-12T10:16:45;96963.34;;;23.06;33.29
4199;BME280;2113;50.946;14.610;2023-05-12T10:19:14;96959.81;;;22.06;35.99
4199;BME280;2113;50.946;14.610;2023-05-12T10:21:43;96967.34;;;20.47;40.42
4199;BME280;2113;50.946;14.610;2023-05-12T10:24:13;96967.81;;;19.76;41.20
4199;BME280;2113;50.946;14.610;2023-05-12T10:26:44;96966.03;;;19.08;42.33
4199;BME280;2113;50.946;14.610;2023-05-12T10:29:12;96957.41;;;19.34;43.61
4199;BME280;2113;50.946;14.610;2023-05-12T10:31:43;96960.69;;;19.77;40.14
4199;BME280;2113;50.946;14.610;2023-05-12T10:34:15;96964.03;;;20.18;40.59
4199;BME280;2113;50.946;14.610;2023-05-12T10:36:48;96966.41;;;19.87;40.46
4199;BME280;2113;50.946;14.610;2023-05-12T10:39:17;96966.44;;;20.00;41.94
4199;BME280;2113;50.946;14.610;2023-05-12T10:41:47;96961.94;;;19.87;41.85
4199;BME280;2113;50.946;14.610;2023-05-12T10:44:25;96972.47;;;19.68;40.48
4199;BME280;2113;50.946;14.610;2023-05-12T10:46:57;96965.31;;;19.27;41.26
4199;BME280;2113;50.946;14.610;2023-05-12T10:49:33;96968.06;;;19.47;40.94
4199;BME280;2113;50.946;14.610;2023-05-12T10:52:04;96972.13;;;19.97;41.43
4199;BME280;2113;50.946;14.610;2023-05-12T10:54:37;96967.44;;;19.99;43.07
4199;BME280;2113;50.946;14.610;2023-05-12T10:57:13;96973.47;;;20.47;41.84
4199;BME280;2113;50.946;14.610;2023-05-12T10:59:47;96964.22;;;21.22;39.79
4199;BME280;2113;50.946;14.610;2023-05-12T11:02:22;96968.50;;;21.30;38.06
4199;BME280;2113;50.946;14.610;2023-05-12T11:04:55;96962.03;;;21.71;40.77
4199;BME280;2113;50.946;14.610;2023-05-12T11:07:29;96963.13;;;21.94;36.18
4199;BME280;2113;50.946;14.610;2023-05-12T11:09:59;96977.34;;;22.76;35.29
4199;BME280;2113;50.946;14.610;2023-05-12T11:12:33;96969.06;;;21.90;37.90
4199;BME280;2113;50.946;14.610;2023-05-12T11:15:07;96975.41;;;21.38;39.93
4199;BME280;2113;50.946;14.610;2023-05-12T11:17:38;96979.75;;;19.59;42.50
4199;BME280;2113;50.946;14.610;2023-05-12T11:20:07;96977.50;;;19.49;42.11
4199;BME280;2113;50.946;14.610;2023-05-12T11:22:39;96976.19;;;19.80;42.50
4199;BME280;2113;50.946;14.610;2023-05-12T11:25:10;96970.22;;;19.71;42.61
4199;BME280;2113;50.946;14.610;2023-05-12T11:27:45;96979.25;;;19.42;43.33
4199;BME280;2113;50.946;14.610;2023-05-12T11:30:14;96973.13;;;18.52;45.23
4199;BME280;2113;50.946;14.610;2023-05-12T11:32:43;96976.81;;;18.08;46.78
4199;BME280;2113;50.946;14.610;2023-05-12T11:35:13;96978.00;;;18.27;46.10
4199;BME280;2113;50.946;14.610;2023-05-12T11:37:43;96974.75;;;18.25;46.11
4199;BME280;2113;50.946;14.610;2023-05-12T11:40:17;96979.72;;;18.84;46.57
4199;BME280;2113;50.946;14.610;2023-05-12T11:42:50;96978.31;;;19.50;45.01
4199;BME280;2113;50.946;14.610;2023-05-12T11:45:21;96981.22;;;20.36;46.05
4199;BME280;2113;50.946;14.610;2023-05-12T11:47:51;96983.88;;;19.68;42.17
4199;BME280;2113;50.946;14.610;2023-05-12T11:50:22;96975.75;;;19.01;44.89
4199;BME280;2113;50.946;14.610;2023-05-12T11:52:51;96977.31;;;18.89;45.83
4199;BME280;2113;50.946;14.610;2023-05-12T11:55:21;96980.56;;;18.84;45.16
4199;BME280;2113;50.946;14.610;2023-05-12T11:57:57;96983.44;;;19.58;43.01
4199;BME280;2113;50.946;14.610;2023-05-12T12:00:27;96970.75;;;20.14;43.82
4199;BME280;2113;50.946;14.610;2023-05-12T12:03:11;96976.66;;;20.16;41.32
4199;BME280;2113;50.946;14.610;2023-05-12T12:05:57;96977.91;;;20.20;41.90
4199;BME280;2113;50.946;14.610;2023-05-12T12:08:27;96984.66;;;20.30;42.70
4199;BME280;2113;50.946;14.610;2023-05-12T12:10:56;96989.09;;;20.09;41.28
4199;BME280;2113;50.946;14.610;2023-05-12T12:13:30;96996.41;;;20.01;41.14
4199;BME280;2113;50.946;14.610;2023-05-12T12:15:59;96993.34;;;19.97;42.26
4199;BME280;2113;50.946;14.610;2023-05-12T12:18:27;96987.41;;;19.88;41.05
4199;BME280;2113;50.946;14.610;2023-05-12T12:20:56;96998.22;;;19.87;41.75
4199;BME280;2113;50.946;14.610;2023-05-12T12:23:24;96999.63;;;19.83;40.70
4199;BME280;2113;50.946;14.610;2023-05-12T12:25:52;96996.84;;;19.50;41.75
4199;BME280;2113;50.946;14.610;2023-05-12T12:28:20;96999.13;;;19.25;42.42
4199;BME280;2113;50.946;14.610;2023-05-12T12:30:50;97002.84;;;19.03;41.70
4199;BME280;2113;50.946;14.610;2023-05-12T12:33:19;96996.59;;;19.45;42.33
4199;BME280;2113;50.946;14.610;2023-05-12T12:35:48;96995.66;;;19.52;41.50
4199;BME280;2113;50.946;14.610;2023-05-12T12:38:17;96994.44;;;19.62;39.05
4199;BME280;2113;50.946;14.610;2023-05-12T12:40:45;96993.69;;;19.68;39.33
4199;BME280;2113;50.946;14.610;2023-05-12T12:43:14;96990.44;;;19.79;40.59
4199;BME280;2113;50.946;14.610;2023-05-12T12:45:42;96992.91;;;19.87;40.47
4199;BME280;2113;50.946;14.610;2023-05-12T12:48:13;96993.81;;;20.07;41.05
4199;BME280;2113;50.946;14.610;2023-05-12T12:50:41;96991.03;;;20.62;42.06
4199;BME280;2113;50.946;14.610;2023-05-12T12:53:10;96992.66;;;20.43;37.31
4199;BME280;2113;50.946;14.610;2023-05-12T12:55:39;96988.88;;;21.56;37.81
4199;BME280;2113;50.946;14.610;2023-05-12T12:58:07;96988.84;;;22.07;31.78
4199;BME280;2113;50.946;14.610;2023-05-12T13:00:35;96984.25;;;21.83;32.29
4199;BME280;2113;50.946;14.610;2023-05-12T13:03:30;96981.66;;;21.63;31.58
4199;BME280;2113;50.946;14.610;2023-05-12T13:05:59;96983.75;;;21.48;34.12
4199;BME280;2113;50.946;14.610;2023-05-12T13:08:27;96968.41;;;22.39;32.80
4199;BME280;2113;50.946;14.610;2023-05-12T13:10:55;96967.50;;;23.38;31.57
4199;BME280;2113;50.946;14.610;2023-05-12T13:13:23;96965.25;;;22.98;31.04
4199;BME280;2113;50.946;14.610;2023-05-12T13:15:52;96965.53;;;22.65;32.96
4199;BME280;2113;50.946;14.610;2023-05-12T13:18:20;96962.81;;;21.00;35.84
4199;BME280;2113;50.946;14.610;2023-05-12T13:20:50;96961.69;;;22.30;33.60
4199;BME280;2113;50.946;14.610;2023-05-12T13:23:20;96966.34;;;22.10;35.48
4199;BME280;2113;50.946;14.610;2023-05-12T13:25:49;96967.38;;;22.02;34.09
4199;BME280;2113;50.946;14.610;2023-05-12T13:28:18;96965.88;;;22.69;34.08
4199;BME280;2113;50.946;14.610;2023-05-12T13:30:46;96957.25;;;22.49;33.31